sensor_id;sensor_type;location;lat;lon;timestamp;temperature;humidity
78536;SHT31;67829;51.968;5.684;2024-02-28T00:02:09;5.9;70.0
78536;SHT31;67829;51.968;5.684;2024-02-28T00:04:40;5.9;69.8
78536;SHT31;67829;51.968;5.684;2024-02-28T00:07:09;5.9;69.9
78536;SHT31;67829;51.968;5.684;2024-02-28T00:09:38;5.9;70.1
78536;SHT31;67829;51.968;5.684;2024-02-28T00:12:07;5.9;70.1
78536;SHT31;67829;51.968;5.684;2024-02-28T00:14:36;5.9;70.3
78536;SHT31;67829;51.968;5.684;2024-02-28T00:17:04;5.9;70.4
78536;SHT31;67829;51.968;5.684;2024-02-28T00:19:34;5.9;70.2
78536;SHT31;67829;51.968;5.684;2024-02-28T00:22:02;5.9;70.2
78536;SHT31;67829;51.968;5.684;2024-02-28T00:24:31;5.9;70.3
78536;SHT31;67829;51.968;5.684;2024-02-28T00:26:59;5.9;70.2
78536;SHT31;67829;51.968;5.684;2024-02-28T00:29:28;5.9;70.2
78536;SHT31;67829;51.968;5.684;2024-02-28T00:31:56;5.9;70.3
78536;SHT31;67829;51.968;5.684;2024-02-28T00:34:25;5.9;70.4
78536;SHT31;67829;51.968;5.684;2024-02-28T00:36:55;5.9;70.3
78536;SHT31;67829;51.968;5.684;2024-02-28T00:39:26;5.9;70.5
78536;SHT31;67829;51.968;5.684;2024-02-28T00:41:54;5.9;70.6
78536;SHT31;67829;51.968;5.684;2024-02-28T00:44:23;5.9;70.9
78536;SHT31;67829;51.968;5.684;2024-02-28T00:46:51;5.9;71.0
78536;SHT31;67829;51.968;5.684;2024-02-28T00:49:22;5.9;70.9
78536;SHT31;67829;51.968;5.684;2024-02-28T00:51:50;5.9;70.6
78536;SHT31;67829;51.968;5.684;2024-02-28T00:54:19;5.9;70.6
78536;SHT31;67829;51.968;5.684;2024-02-28T00:56:48;5.9;70.6
78536;SHT31;67829;51.968;5.684;2024-02-28T00:59:16;5.9;70.7
78536;SHT31;67829;51.968;5.684;2024-02-28T01:01:45;6.0;70.6
78536;SHT31;67829;51.968;5.684;2024-02-28T01:04:13;6.0;70.6
78536;SHT31;67829;51.968;5.684;2024-02-28T01:06:42;6.0;70.5
78536;SHT31;67829;51.968;5.684;2024-02-28T01:09:10;6.0;70.3
78536;SHT31;67829;51.968;5.684;2024-02-28T01:11:39;6.0;70.2
78536;SHT31;67829;51.968;5.684;2024-02-28T01:14:07;6.0;70.0
78536;SHT31;67829;51.968;5.684;2024-02-28T01:16:36;6.0;70.4
78536;SHT31;67829;51.968;5.684;2024-02-28T01:19:04;6.0;70.8
78536;SHT31;67829;51.968;5.684;2024-02-28T01:21:34;6.0;71.1
78536;SHT31;67829;51.968;5.684;2024-02-28T01:24:03;6.1;70.7
78536;SHT31;67829;51.968;5.684;2024-02-28T01:26:32;6.1;70.0
78536;SHT31;67829;51.968;5.684;2024-02-28T01:29:01;6.1;70.1
78536;SHT31;67829;51.968;5.684;2024-02-28T01:31:31;6.1;70.0
78536;SHT31;67829;51.968;5.684;2024-02-28T01:34:01;6.1;69.8
78536;SHT31;67829;51.968;5.684;2024-02-28T01:36:30;6.1;69.6
78536;SHT31;67829;51.968;5.684;2024-02-28T01:39:00;6.1;69.7
78536;SHT31;67829;51.968;5.684;2024-02-28T01:41:29;6.1;69.8
78536;SHT31;67829;51.968;5.684;2024-02-28T01:43:58;6.1;69.9
78536;SHT31;67829;51.968;5.684;2024-02-28T01:46:28;6.1;69.6
78536;SHT31;67829;51.968;5.684;2024-02-28T01:48:58;6.1;69.9
78536;SHT31;67829;51.968;5.684;2024-02-28T01:51:27;6.1;69.9
78536;SHT31;67829;51.968;5.684;2024-02-28T01:53:58;6.1;69.7
78536;SHT31;67829;51.968;5.684;2024-02-28T01:56:28;6.1;69.8
78536;SHT31;67829;51.968;5.684;2024-02-28T01:58:59;6.1;69.5
78536;SHT31;67829;51.968;5.684;2024-02-28T02:01:28;6.1;69.5
78536;SHT31;67829;51.968;5.684;2024-02-28T02:03:57;6.1;69.5
78536;SHT31;67829;51.968;5.684;2024-02-28T02:06:26;6.1;69.6
78536;SHT31;67829;51.968;5.684;2024-02-28T02:08:54;6.1;69.8
78536;SHT31;67829;51.968;5.684;2024-02-28T02:11:24;6.1;69.4
78536;SHT31;67829;51.968;5.684;2024-02-28T02:13:53;6.1;69.2
78536;SHT31;67829;51.968;5.684;2024-02-28T02:16:23;6.1;69.2
78536;SHT31;67829;51.968;5.684;2024-02-28T02:18:53;6.1;68.9
78536;SHT31;67829;51.968;5.684;2024-02-28T02:21:24;6.1;69.1
78536;SHT31;67829;51.968;5.684;2024-02-28T02:23:56;6.1;68.9
78536;SHT31;67829;51.968;5.684;2024-02-28T02:26:25;6.1;69.1
78536;SHT31;67829;51.968;5.684;2024-02-28T02:28:53;6.1;69.1
78536;SHT31;67829;51.968;5.684;2024-02-28T02:31:23;6.1;69.2
78536;SHT31;67829;51.968;5.684;2024-02-28T02:33:52;6.1;68.9
78536;SHT31;67829;51.968;5.684;2024-02-28T02:36:21;6.1;69.1
78536;SHT31;67829;51.968;5.684;2024-02-28T02:38:50;6.1;69.2
78536;SHT31;67829;51.968;5.684;2024-02-28T02:41:18;6.1;68.6
78536;SHT31;67829;51.968;5.684;2024-02-28T02:43:47;6.0;69.0
78536;SHT31;67829;51.968;5.684;2024-02-28T02:46:16;6.0;69.3
78536;SHT31;67829;51.968;5.684;2024-02-28T02:48:44;6.0;69.2
78536;SHT31;67829;51.968;5.684;2024-02-28T02:51:13;6.0;69.1
78536;SHT31;67829;51.968;5.684;2024-02-28T02:53:43;6.0;69.2
78536;SHT31;67829;51.968;5.684;2024-02-28T02:56:13;6.0;69.5
78536;SHT31;67829;51.968;5.684;2024-02-28T02:58:41;6.0;69.1
78536;SHT31;67829;51.968;5.684;2024-02-28T03:01:10;6.0;69.0
78536;SHT31;67829;51.968;5.684;2024-02-28T03:03:38;6.0;68.6
78536;SHT31;67829;51.968;5.684;2024-02-28T03:06:07;5.9;68.3
78536;SHT31;67829;51.968;5.684;2024-02-28T03:08:36;5.9;68.2
78536;SHT31;67829;51.968;5.684;2024-02-28T03:11:05;5.9;68.5
78536;SHT31;67829;51.968;5.684;2024-02-28T03:13:35;5.9;68.4
78536;SHT31;67829;51.968;5.684;2024-02-28T03:16:05;5.9;67.9
78536;SHT31;67829;51.968;5.684;2024-02-28T03:18:34;5.9;67.6
78536;SHT31;67829;51.968;5.684;2024-02-28T03:21:04;5.9;67.8
78536;SHT31;67829;51.968;5.684;2024-02-28T03:23:34;5.8;67.6
78536;SHT31;67829;51.968;5.684;2024-02-28T03:26:03;5.8;67.2
78536;SHT31;67829;51.968;5.684;2024-02-28T03:28:32;5.8;66.9
78536;SHT31;67829;51.968;5.684;2024-02-28T03:31:01;5.7;66.9
78536;SHT31;67829;51.968;5.684;2024-02-28T03:33:29;5.7;67.3
78536;SHT31;67829;51.968;5.684;2024-02-28T03:36:00;5.6;67.3
78536;SHT31;67829;51.968;5.684;2024-02-28T03:38:30;5.6;66.9
78536;SHT31;67829;51.968;5.684;2024-02-28T03:40:59;5.5;67.1
78536;SHT31;67829;51.968;5.684;2024-02-28T03:43:28;5.5;67.4
78536;SHT31;67829;51.968;5.684;2024-02-28T03:45:56;5.5;68.1
78536;SHT31;67829;51.968;5.684;2024-02-28T03:48:25;5.4;68.3
78536;SHT31;67829;51.968;5.684;2024-02-28T03:50:53;5.4;68.5
78536;SHT31;67829;51.968;5.684;2024-02-28T03:53:21;5.3;68.8
78536;SHT31;67829;51.968;5.684;2024-02-28T03:55:50;5.3;69.0
78536;SHT31;67829;51.968;5.684;2024-02-28T03:58:19;5.3;69.2
78536;SHT31;67829;51.968;5.684;2024-02-28T04:00:47;5.2;69.2
78536;SHT31;67829;51.968;5.684;2024-02-28T04:03:16;5.2;69.4
78536;SHT31;67829;51.968;5.684;2024-02-28T04:05:45;5.2;69.5
78536;SHT31;67829;51.968;5.684;2024-02-28T04:08:13;5.1;69.6
78536;SHT31;67829;51.968;5.684;2024-02-28T04:10:44;5.1;69.6
78536;SHT31;67829;51.968;5.684;2024-02-28T04:13:12;5.1;69.4
78536;SHT31;67829;51.968;5.684;2024-02-28T04:15:41;5.0;69.4
78536;SHT31;67829;51.968;5.684;2024-02-28T04:18:11;5.0;69.6
78536;SHT31;67829;51.968;5.684;2024-02-28T04:20:42;5.0;69.7
78536;SHT31;67829;51.968;5.684;2024-02-28T04:23:11;5.0;69.8
78536;SHT31;67829;51.968;5.684;2024-02-28T04:25:39;5.0;69.9
78536;SHT31;67829;51.968;5.684;2024-02-28T04:28:08;4.9;70.3
78536;SHT31;67829;51.968;5.684;2024-02-28T04:30:37;4.9;70.7
78536;SHT31;67829;51.968;5.684;2024-02-28T04:33:06;4.9;70.7
78536;SHT31;67829;51.968;5.684;2024-02-28T04:35:34;4.9;70.7
78536;SHT31;67829;51.968;5.684;2024-02-28T04:38:03;4.9;70.8
78536;SHT31;67829;51.968;5.684;2024-02-28T04:40:32;4.9;70.8
78536;SHT31;67829;51.968;5.684;2024-02-28T04:43:00;5.0;71.0
78536;SHT31;67829;51.968;5.684;2024-02-28T04:45:28;5.0;71.1
78536;SHT31;67829;51.968;5.684;2024-02-28T04:47:57;5.0;71.3
78536;SHT31;67829;51.968;5.684;2024-02-28T04:50:25;5.0;71.2
78536;SHT31;67829;51.968;5.684;2024-02-28T04:52:54;5.0;71.2
78536;SHT31;67829;51.968;5.684;2024-02-28T04:55:22;5.0;71.5
78536;SHT31;67829;51.968;5.684;2024-02-28T04:57:51;5.0;71.4
78536;SHT31;67829;51.968;5.684;2024-02-28T05:00:19;5.0;71.8
78536;SHT31;67829;51.968;5.684;2024-02-28T05:02:50;5.0;71.7
78536;SHT31;67829;51.968;5.684;2024-02-28T05:05:18;5.0;71.9
78536;SHT31;67829;51.968;5.684;2024-02-28T05:07:47;5.0;72.0
78536;SHT31;67829;51.968;5.684;2024-02-28T05:10:16;5.0;72.0
78536;SHT31;67829;51.968;5.684;2024-02-28T05:12:44;5.1;71.9
78536;SHT31;67829;51.968;5.684;2024-02-28T05:15:13;5.1;72.1
78536;SHT31;67829;51.968;5.684;2024-02-28T05:17:41;5.1;71.7
78536;SHT31;67829;51.968;5.684;2024-02-28T05:20:11;5.1;71.5
78536;SHT31;67829;51.968;5.684;2024-02-28T05:22:40;5.1;71.5
78536;SHT31;67829;51.968;5.684;2024-02-28T05:25:09;5.1;71.6
78536;SHT31;67829;51.968;5.684;2024-02-28T05:27:37;5.2;71.7
78536;SHT31;67829;51.968;5.684;2024-02-28T05:30:07;5.2;71.7
78536;SHT31;67829;51.968;5.684;2024-02-28T05:32:36;5.2;71.4
78536;SHT31;67829;51.968;5.684;2024-02-28T05:35:05;5.2;71.5
78536;SHT31;67829;51.968;5.684;2024-02-28T05:37:34;5.2;71.7
78536;SHT31;67829;51.968;5.684;2024-02-28T05:40:04;5.2;71.7
78536;SHT31;67829;51.968;5.684;2024-02-28T05:42:37;5.2;71.4
78536;SHT31;67829;51.968;5.684;2024-02-28T05:45:07;5.2;71.6
78536;SHT31;67829;51.968;5.684;2024-02-28T05:47:37;5.2;71.2
78536;SHT31;67829;51.968;5.684;2024-02-28T05:50:06;5.2;71.6
78536;SHT31;67829;51.968;5.684;2024-02-28T05:52:36;5.1;71.7
78536;SHT31;67829;51.968;5.684;2024-02-28T05:55:06;5.1;72.0
78536;SHT31;67829;51.968;5.684;2024-02-28T05:57:34;5.2;72.3
78536;SHT31;67829;51.968;5.684;2024-02-28T06:00:04;5.2;72.7
78536;SHT31;67829;51.968;5.684;2024-02-28T06:02:36;5.2;72.6
78536;SHT31;67829;51.968;5.684;2024-02-28T06:05:09;5.2;72.5
78536;SHT31;67829;51.968;5.684;2024-02-28T06:07:39;5.2;72.3
78536;SHT31;67829;51.968;5.684;2024-02-28T06:10:09;5.2;72.1
78536;SHT31;67829;51.968;5.684;2024-02-28T06:12:38;5.2;72.0
78536;SHT31;67829;51.968;5.684;2024-02-28T06:15:08;5.3;71.9
78536;SHT31;67829;51.968;5.684;2024-02-28T06:17:37;5.3;71.8
78536;SHT31;67829;51.968;5.684;2024-02-28T06:20:06;5.3;71.6
78536;SHT31;67829;51.968;5.684;2024-02-28T06:22:35;5.3;71.6
78536;SHT31;67829;51.968;5.684;2024-02-28T06:25:04;5.3;71.5
78536;SHT31;67829;51.968;5.684;2024-02-28T06:27:39;5.3;71.7
78536;SHT31;67829;51.968;5.684;2024-02-28T06:30:08;5.3;71.7
78536;SHT31;67829;51.968;5.684;2024-02-28T06:32:38;5.3;71.8
78536;SHT31;67829;51.968;5.684;2024-02-28T06:35:08;5.3;71.9
78536;SHT31;67829;51.968;5.684;2024-02-28T06:37:37;5.3;71.9
78536;SHT31;67829;51.968;5.684;2024-02-28T06:40:06;5.3;72.0
78536;SHT31;67829;51.968;5.684;2024-02-28T06:42:36;5.3;72.4
78536;SHT31;67829;51.968;5.684;2024-02-28T06:45:08;5.3;72.3
78536;SHT31;67829;51.968;5.684;2024-02-28T06:47:39;5.3;72.3
78536;SHT31;67829;51.968;5.684;2024-02-28T06:50:09;5.3;72.0
78536;SHT31;67829;51.968;5.684;2024-02-28T06:52:37;5.3;72.0
78536;SHT31;67829;51.968;5.684;2024-02-28T06:55:08;5.3;71.9
78536;SHT31;67829;51.968;5.684;2024-02-28T06:57:41;5.3;72.0
78536;SHT31;67829;51.968;5.684;2024-02-28T07:00:11;5.3;72.0
78536;SHT31;67829;51.968;5.684;2024-02-28T07:02:42;5.3;71.8
78536;SHT31;67829;51.968;5.684;2024-02-28T07:05:12;5.3;71.8
78536;SHT31;67829;51.968;5.684;2024-02-28T07:07:41;5.3;71.8
78536;SHT31;67829;51.968;5.684;2024-02-28T07:10:10;5.3;72.1
78536;SHT31;67829;51.968;5.684;2024-02-28T07:12:40;5.3;72.2
78536;SHT31;67829;51.968;5.684;2024-02-28T07:15:09;5.3;72.2
78536;SHT31;67829;51.968;5.684;2024-02-28T07:17:37;5.3;72.1
78536;SHT31;67829;51.968;5.684;2024-02-28T07:20:07;5.3;72.0
78536;SHT31;67829;51.968;5.684;2024-02-28T07:22:36;5.3;72.1
78536;SHT31;67829;51.968;5.684;2024-02-28T07:25:06;5.3;71.9
78536;SHT31;67829;51.968;5.684;2024-02-28T07:27:35;5.3;72.0
78536;SHT31;67829;51.968;5.684;2024-02-28T07:30:03;5.4;72.2
78536;SHT31;67829;51.968;5.684;2024-02-28T07:32:33;5.4;72.2
78536;SHT31;67829;51.968;5.684;2024-02-28T07:35:03;5.4;72.3
78536;SHT31;67829;51.968;5.684;2024-02-28T07:37:32;5.4;72.3
78536;SHT31;67829;51.968;5.684;2024-02-28T07:40:00;5.4;72.4
78536;SHT31;67829;51.968;5.684;2024-02-28T07:42:30;5.5;72.4
78536;SHT31;67829;51.968;5.684;2024-02-28T07:44:58;5.5;72.6
78536;SHT31;67829;51.968;5.684;2024-02-28T07:47:27;5.5;72.5
78536;SHT31;67829;51.968;5.684;2024-02-28T07:49:55;5.6;72.6
78536;SHT31;67829;51.968;5.684;2024-02-28T07:52:24;5.6;72.6
78536;SHT31;67829;51.968;5.684;2024-02-28T07:54:52;5.6;72.4
78536;SHT31;67829;51.968;5.684;2024-02-28T07:57:21;5.7;73.1
78536;SHT31;67829;51.968;5.684;2024-02-28T07:59:49;5.7;72.8
78536;SHT31;67829;51.968;5.684;2024-02-28T08:02:18;5.7;72.8
78536;SHT31;67829;51.968;5.684;2024-02-28T08:04:47;5.8;72.8
78536;SHT31;67829;51.968;5.684;2024-02-28T08:07:17;5.8;73.2
78536;SHT31;67829;51.968;5.684;2024-02-28T08:09:45;5.9;73.0
78536;SHT31;67829;51.968;5.684;2024-02-28T08:12:14;5.9;73.1
78536;SHT31;67829;51.968;5.684;2024-02-28T08:14:42;5.9;72.9
78536;SHT31;67829;51.968;5.684;2024-02-28T08:17:12;6.0;72.4
78536;SHT31;67829;51.968;5.684;2024-02-28T08:19:43;6.0;72.2
78536;SHT31;67829;51.968;5.684;2024-02-28T08:22:11;6.1;72.2
78536;SHT31;67829;51.968;5.684;2024-02-28T08:24:40;6.1;72.5
78536;SHT31;67829;51.968;5.684;2024-02-28T08:27:10;6.1;72.5
78536;SHT31;67829;51.968;5.684;2024-02-28T08:29:41;6.1;72.5
78536;SHT31;67829;51.968;5.684;2024-02-28T08:32:13;6.1;72.1
78536;SHT31;67829;51.968;5.684;2024-02-28T08:34:45;6.1;72.0
78536;SHT31;67829;51.968;5.684;2024-02-28T08:37:14;6.2;71.8
78536;SHT31;67829;51.968;5.684;2024-02-28T08:39:45;6.2;71.8
78536;SHT31;67829;51.968;5.684;2024-02-28T08:42:15;6.2;71.9
78536;SHT31;67829;51.968;5.684;2024-02-28T08:44:43;6.2;71.8
78536;SHT31;67829;51.968;5.684;2024-02-28T08:47:14;6.2;71.8
78536;SHT31;67829;51.968;5.684;2024-02-28T08:49:43;6.2;71.8
78536;SHT31;67829;51.968;5.684;2024-02-28T08:52:11;6.2;72.3
78536;SHT31;67829;51.968;5.684;2024-02-28T08:54:40;6.2;72.0
78536;SHT31;67829;51.968;5.684;2024-02-28T08:57:08;6.2;72.2
78536;SHT31;67829;51.968;5.684;2024-02-28T08:59:37;6.2;72.2
78536;SHT31;67829;51.968;5.684;2024-02-28T09:02:07;6.2;72.5
78536;SHT31;67829;51.968;5.684;2024-02-28T09:04:37;6.2;72.7
78536;SHT31;67829;51.968;5.684;2024-02-28T09:07:05;6.2;72.9
78536;SHT31;67829;51.968;5.684;2024-02-28T09:09:34;6.3;72.8
78536;SHT31;67829;51.968;5.684;2024-02-28T09:12:05;6.3;72.5
78536;SHT31;67829;51.968;5.684;2024-02-28T09:14:34;6.3;72.7
78536;SHT31;67829;51.968;5.684;2024-02-28T09:17:02;6.3;73.0
78536;SHT31;67829;51.968;5.684;2024-02-28T09:19:32;6.3;73.1
78536;SHT31;67829;51.968;5.684;2024-02-28T09:22:00;6.4;73.2
78536;SHT31;67829;51.968;5.684;2024-02-28T09:24:29;6.4;73.3
78536;SHT31;67829;51.968;5.684;2024-02-28T09:26:58;6.4;73.3
78536;SHT31;67829;51.968;5.684;2024-02-28T09:29:26;6.5;73.4
78536;SHT31;67829;51.968;5.684;2024-02-28T09:31:55;6.5;73.5
78536;SHT31;67829;51.968;5.684;2024-02-28T09:34:23;6.5;73.5
78536;SHT31;67829;51.968;5.684;2024-02-28T09:36:54;6.5;73.9
78536;SHT31;67829;51.968;5.684;2024-02-28T09:39:22;6.6;74.2
78536;SHT31;67829;51.968;5.684;2024-02-28T09:41:52;6.6;74.3
78536;SHT31;67829;51.968;5.684;2024-02-28T09:44:23;6.6;74.4
78536;SHT31;67829;51.968;5.684;2024-02-28T09:46:52;6.7;74.6
78536;SHT31;67829;51.968;5.684;2024-02-28T09:49:22;6.7;74.6
78536;SHT31;67829;51.968;5.684;2024-02-28T09:51:53;6.8;74.3
78536;SHT31;67829;51.968;5.684;2024-02-28T09:54:22;6.8;74.4
78536;SHT31;67829;51.968;5.684;2024-02-28T09:56:51;6.9;74.5
78536;SHT31;67829;51.968;5.684;2024-02-28T09:59:21;6.9;74.6
78536;SHT31;67829;51.968;5.684;2024-02-28T10:01:55;7.0;74.4
78536;SHT31;67829;51.968;5.684;2024-02-28T10:04:26;7.0;74.3
78536;SHT31;67829;51.968;5.684;2024-02-28T10:06:56;7.1;74.5
78536;SHT31;67829;51.968;5.684;2024-02-28T10:09:24;7.2;74.5
78536;SHT31;67829;51.968;5.684;2024-02-28T10:11:53;7.2;74.3
78536;SHT31;67829;51.968;5.684;2024-02-28T10:14:22;7.3;74.2
78536;SHT31;67829;51.968;5.684;2024-02-28T10:16:50;7.3;74.4
78536;SHT31;67829;51.968;5.684;2024-02-28T10:19:20;7.4;74.6
78536;SHT31;67829;51.968;5.684;2024-02-28T10:21:49;7.5;75.0
78536;SHT31;67829;51.968;5.684;2024-02-28T10:24:18;7.6;74.7
78536;SHT31;67829;51.968;5.684;2024-02-28T10:26:47;7.6;74.4
78536;SHT31;67829;51.968;5.684;2024-02-28T10:29:21;7.7;73.3
78536;SHT31;67829;51.968;5.684;2024-02-28T10:31:50;7.8;73.0
78536;SHT31;67829;51.968;5.684;2024-02-28T10:34:19;7.8;73.2
78536;SHT31;67829;51.968;5.684;2024-02-28T10:36:47;7.9;73.3
78536;SHT31;67829;51.968;5.684;2024-02-28T10:39:17;7.9;73.2
78536;SHT31;67829;51.968;5.684;2024-02-28T10:41:48;8.0;73.0
78536;SHT31;67829;51.968;5.684;2024-02-28T10:44:20;8.0;73.7
78536;SHT31;67829;51.968;5.684;2024-02-28T10:46:51;8.1;73.5
78536;SHT31;67829;51.968;5.684;2024-02-28T10:49:20;8.1;73.4
78536;SHT31;67829;51.968;5.684;2024-02-28T10:51:49;8.2;73.3
78536;SHT31;67829;51.968;5.684;2024-02-28T10:54:21;8.2;73.3
78536;SHT31;67829;51.968;5.684;2024-02-28T10:56:53;8.3;73.7
78536;SHT31;67829;51.968;5.684;2024-02-28T10:59:23;8.3;73.6
78536;SHT31;67829;51.968;5.684;2024-02-28T11:01:53;8.4;72.9
78536;SHT31;67829;51.968;5.684;2024-02-28T11:04:22;8.4;72.9
78536;SHT31;67829;51.968;5.684;2024-02-28T11:06:54;8.5;73.0
78536;SHT31;67829;51.968;5.684;2024-02-28T11:09:25;8.6;72.6
78536;SHT31;67829;51.968;5.684;2024-02-28T11:11:59;8.6;72.6
78536;SHT31;67829;51.968;5.684;2024-02-28T11:14:27;8.6;72.1
78536;SHT31;67829;51.968;5.684;2024-02-28T11:17:03;8.7;72.2
78536;SHT31;67829;51.968;5.684;2024-02-28T11:19:33;8.7;72.0
78536;SHT31;67829;51.968;5.684;2024-02-28T11:22:02;8.8;72.6
78536;SHT31;67829;51.968;5.684;2024-02-28T11:24:34;8.8;72.4
78536;SHT31;67829;51.968;5.684;2024-02-28T11:27:04;8.9;72.0
78536;SHT31;67829;51.968;5.684;2024-02-28T11:29:33;8.9;72.3
78536;SHT31;67829;51.968;5.684;2024-02-28T11:32:02;9.0;71.9
78536;SHT31;67829;51.968;5.684;2024-02-28T11:34:31;9.0;71.9
78536;SHT31;67829;51.968;5.684;2024-02-28T11:37:00;9.1;71.8
78536;SHT31;67829;51.968;5.684;2024-02-28T11:39:29;9.1;71.9
78536;SHT31;67829;51.968;5.684;2024-02-28T11:42:10;9.1;72.2
78536;SHT31;67829;51.968;5.684;2024-02-28T11:44:40;9.2;72.0
78536;SHT31;67829;51.968;5.684;2024-02-28T11:47:10;9.3;72.0
78536;SHT31;67829;51.968;5.684;2024-02-28T11:49:39;9.3;71.6
78536;SHT31;67829;51.968;5.684;2024-02-28T11:52:08;9.4;72.1
78536;SHT31;67829;51.968;5.684;2024-02-28T11:54:38;9.4;71.9
78536;SHT31;67829;51.968;5.684;2024-02-28T11:57:07;9.4;71.9
78536;SHT31;67829;51.968;5.684;2024-02-28T11:59:36;9.5;72.1
78536;SHT31;67829;51.968;5.684;2024-02-28T12:02:13;9.6;72.7
78536;SHT31;67829;51.968;5.684;2024-02-28T12:04:44;9.6;72.1
78536;SHT31;67829;51.968;5.684;2024-02-28T12:07:16;9.7;72.4
78536;SHT31;67829;51.968;5.684;2024-02-28T12:09:46;9.8;71.8
78536;SHT31;67829;51.968;5.684;2024-02-28T12:12:16;9.8;71.7
78536;SHT31;67829;51.968;5.684;2024-02-28T12:14:46;9.9;71.7
78536;SHT31;67829;51.968;5.684;2024-02-28T12:17:16;9.9;71.1
78536;SHT31;67829;51.968;5.684;2024-02-28T12:19:45;10.0;71.3
78536;SHT31;67829;51.968;5.684;2024-02-28T12:22:13;10.0;70.9
78536;SHT31;67829;51.968;5.684;2024-02-28T12:24:42;10.1;70.5
78536;SHT31;67829;51.968;5.684;2024-02-28T12:27:11;10.1;70.6
78536;SHT31;67829;51.968;5.684;2024-02-28T12:29:41;10.2;70.3
78536;SHT31;67829;51.968;5.684;2024-02-28T12:32:10;10.2;70.8
78536;SHT31;67829;51.968;5.684;2024-02-28T12:34:39;10.2;70.5
78536;SHT31;67829;51.968;5.684;2024-02-28T12:37:09;10.3;70.4
78536;SHT31;67829;51.968;5.684;2024-02-28T12:39:37;10.3;70.5
78536;SHT31;67829;51.968;5.684;2024-02-28T12:42:07;10.4;70.2
78536;SHT31;67829;51.968;5.684;2024-02-28T12:44:36;10.4;70.4
78536;SHT31;67829;51.968;5.684;2024-02-28T12:47:07;10.4;70.1
78536;SHT31;67829;51.968;5.684;2024-02-28T12:49:35;10.5;70.3
78536;SHT31;67829;51.968;5.684;2024-02-28T12:52:04;10.5;70.1
78536;SHT31;67829;51.968;5.684;2024-02-28T12:54:33;10.6;69.9
78536;SHT31;67829;51.968;5.684;2024-02-28T12:57:03;10.7;70.0
78536;SHT31;67829;51.968;5.684;2024-02-28T12:59:32;10.7;69.5
78536;SHT31;67829;51.968;5.684;2024-02-28T13:02:01;10.8;69.1
78536;SHT31;67829;51.968;5.684;2024-02-28T13:04:30;10.8;69.2
78536;SHT31;67829;51.968;5.684;2024-02-28T13:06:58;10.9;68.5
78536;SHT31;67829;51.968;5.684;2024-02-28T13:09:27;10.9;67.9
78536;SHT31;67829;51.968;5.684;2024-02-28T13:11:57;10.9;67.9
78536;SHT31;67829;51.968;5.684;2024-02-28T13:14:25;10.9;68.4
78536;SHT31;67829;51.968;5.684;2024-02-28T13:16:54;10.9;68.0
78536;SHT31;67829;51.968;5.684;2024-02-28T13:19:24;11.0;68.0
78536;SHT31;67829;51.968;5.684;2024-02-28T13:21:53;11.0;68.4
78536;SHT31;67829;51.968;5.684;2024-02-28T13:24:22;11.0;68.5
78536;SHT31;67829;51.968;5.684;2024-02-28T13:26:51;11.0;68.7
78536;SHT31;67829;51.968;5.684;2024-02-28T13:29:19;11.1;68.8
78536;SHT31;67829;51.968;5.684;2024-02-28T13:31:48;11.1;68.5
78536;SHT31;67829;51.968;5.684;2024-02-28T13:34:16;11.1;68.7
78536;SHT31;67829;51.968;5.684;2024-02-28T13:36:45;11.1;68.8
78536;SHT31;67829;51.968;5.684;2024-02-28T13:39:13;11.2;68.8
78536;SHT31;67829;51.968;5.684;2024-02-28T13:41:44;11.2;68.5
78536;SHT31;67829;51.968;5.684;2024-02-28T13:44:16;11.3;67.8
78536;SHT31;67829;51.968;5.684;2024-02-28T13:46:45;11.3;67.2
78536;SHT31;67829;51.968;5.684;2024-02-28T13:49:16;11.3;67.4
78536;SHT31;67829;51.968;5.684;2024-02-28T13:51:45;11.3;67.0
78536;SHT31;67829;51.968;5.684;2024-02-28T13:54:15;11.4;66.9
78536;SHT31;67829;51.968;5.684;2024-02-28T13:56:44;11.4;67.3
78536;SHT31;67829;51.968;5.684;2024-02-28T13:59:13;11.4;67.2
78536;SHT31;67829;51.968;5.684;2024-02-28T14:01:42;11.4;67.2
78536;SHT31;67829;51.968;5.684;2024-02-28T14:04:11;11.4;67.0
78536;SHT31;67829;51.968;5.684;2024-02-28T14:06:40;11.4;67.2
78536;SHT31;67829;51.968;5.684;2024-02-28T14:09:08;11.5;67.4
78536;SHT31;67829;51.968;5.684;2024-02-28T14:11:37;11.5;67.6
78536;SHT31;67829;51.968;5.684;2024-02-28T14:14:06;11.5;67.3
78536;SHT31;67829;51.968;5.684;2024-02-28T14:16:35;11.6;67.1
78536;SHT31;67829;51.968;5.684;2024-02-28T14:19:04;11.6;66.7
78536;SHT31;67829;51.968;5.684;2024-02-28T14:21:32;11.6;66.8
78536;SHT31;67829;51.968;5.684;2024-02-28T14:24:01;11.7;66.5
78536;SHT31;67829;51.968;5.684;2024-02-28T14:26:29;11.7;66.6
78536;SHT31;67829;51.968;5.684;2024-02-28T14:28:58;11.7;65.9
78536;SHT31;67829;51.968;5.684;2024-02-28T14:31:27;11.8;65.6
78536;SHT31;67829;51.968;5.684;2024-02-28T14:33:55;11.8;65.6
78536;SHT31;67829;51.968;5.684;2024-02-28T14:36:24;11.8;65.4
78536;SHT31;67829;51.968;5.684;2024-02-28T14:38:53;11.8;64.8
78536;SHT31;67829;51.968;5.684;2024-02-28T14:41:22;11.8;64.9
78536;SHT31;67829;51.968;5.684;2024-02-28T14:43:53;11.8;64.6
78536;SHT31;67829;51.968;5.684;2024-02-28T14:46:24;11.8;64.7
78536;SHT31;67829;51.968;5.684;2024-02-28T14:48:52;11.7;65.1
78536;SHT31;67829;51.968;5.684;2024-02-28T14:51:20;11.7;65.3
78536;SHT31;67829;51.968;5.684;2024-02-28T14:53:51;11.7;65.6
78536;SHT31;67829;51.968;5.684;2024-02-28T14:56:20;11.7;65.7
78536;SHT31;67829;51.968;5.684;2024-02-28T14:58:48;11.7;65.6
78536;SHT31;67829;51.968;5.684;2024-02-28T15:01:17;11.7;65.4
78536;SHT31;67829;51.968;5.684;2024-02-28T15:03:47;11.6;65.5
78536;SHT31;67829;51.968;5.684;2024-02-28T15:06:16;11.6;65.6
78536;SHT31;67829;51.968;5.684;2024-02-28T15:08:45;11.6;65.6
78536;SHT31;67829;51.968;5.684;2024-02-28T15:11:15;11.6;65.8
78536;SHT31;67829;51.968;5.684;2024-02-28T15:13:45;11.6;65.8
78536;SHT31;67829;51.968;5.684;2024-02-28T15:16:16;11.5;66.0
78536;SHT31;67829;51.968;5.684;2024-02-28T15:18:45;11.5;65.9
78536;SHT31;67829;51.968;5.684;2024-02-28T15:21:13;11.5;65.8
78536;SHT31;67829;51.968;5.684;2024-02-28T15:23:42;11.5;66.1
78536;SHT31;67829;51.968;5.684;2024-02-28T15:26:10;11.5;65.9
78536;SHT31;67829;51.968;5.684;2024-02-28T15:28:40;11.5;65.9
78536;SHT31;67829;51.968;5.684;2024-02-28T15:31:09;11.5;66.1
78536;SHT31;67829;51.968;5.684;2024-02-28T15:33:37;11.4;66.0
78536;SHT31;67829;51.968;5.684;2024-02-28T15:36:06;11.4;66.0
78536;SHT31;67829;51.968;5.684;2024-02-28T15:38:35;11.4;65.7
78536;SHT31;67829;51.968;5.684;2024-02-28T15:41:05;11.4;65.8
78536;SHT31;67829;51.968;5.684;2024-02-28T15:43:34;11.4;65.7
78536;SHT31;67829;51.968;5.684;2024-02-28T15:46:03;11.4;65.8
78536;SHT31;67829;51.968;5.684;2024-02-28T15:48:31;11.4;65.8
78536;SHT31;67829;51.968;5.684;2024-02-28T15:51:00;11.3;65.7
78536;SHT31;67829;51.968;5.684;2024-02-28T15:53:29;11.3;65.8
78536;SHT31;67829;51.968;5.684;2024-02-28T15:55:58;11.3;66.0
78536;SHT31;67829;51.968;5.684;2024-02-28T15:58:26;11.3;66.2
78536;SHT31;67829;51.968;5.684;2024-02-28T16:00:55;11.3;66.4
78536;SHT31;67829;51.968;5.684;2024-02-28T16:03:24;11.3;66.6
78536;SHT31;67829;51.968;5.684;2024-02-28T16:05:53;11.3;67.0
78536;SHT31;67829;51.968;5.684;2024-02-28T16:08:22;11.3;66.9
78536;SHT31;67829;51.968;5.684;2024-02-28T16:10:51;11.3;67.1
78536;SHT31;67829;51.968;5.684;2024-02-28T16:13:19;11.3;66.6
78536;SHT31;67829;51.968;5.684;2024-02-28T16:15:48;11.4;66.9
78536;SHT31;67829;51.968;5.684;2024-02-28T16:18:17;11.4;66.9
78536;SHT31;67829;51.968;5.684;2024-02-28T16:20:46;11.4;66.6
78536;SHT31;67829;51.968;5.684;2024-02-28T16:23:14;11.4;66.6
78536;SHT31;67829;51.968;5.684;2024-02-28T16:25:43;11.4;66.5
78536;SHT31;67829;51.968;5.684;2024-02-28T16:28:13;11.4;66.7